createdAt,value
2018-09-11T00:01:28.893Z,18.10
2018-09-11T00:03:57.015Z,18.10
2018-09-11T00:06:25.105Z,17.90
2018-09-11T00:08:53.220Z,17.90
2018-09-11T00:11:21.096Z,17.80
2018-09-11T00:13:49.227Z,17.70
2018-09-11T00:16:17.244Z,17.70
2018-09-11T00:18:45.280Z,17.60
2018-09-11T00:21:13.283Z,17.50
2018-09-11T00:23:41.316Z,17.40
2018-09-11T00:26:09.297Z,17.30
2018-09-11T00:28:37.177Z,17.30
2018-09-11T00:31:05.012Z,17.30
2018-09-11T00:33:33.085Z,17.30
2018-09-11T00:36:01.010Z,17.30
2018-09-11T00:38:28.916Z,17.30
2018-09-11T00:40:56.964Z,17.30
2018-09-11T00:43:24.957Z,17.20
2018-09-11T00:45:53.113Z,17.10
2018-09-11T00:48:21.088Z,17.10
2018-09-11T00:50:49.145Z,17.10
2018-09-11T00:53:17.701Z,17.00
2018-09-11T00:55:45.696Z,17.00
2018-09-11T00:58:13.589Z,17.10
2018-09-11T01:00:41.398Z,17.00
2018-09-11T01:03:09.354Z,17.10
2018-09-11T01:05:37.320Z,17.00
2018-09-11T01:08:05.354Z,16.90
2018-09-11T01:10:33.391Z,16.90
2018-09-11T01:13:01.409Z,16.90
2018-09-11T01:15:29.457Z,16.90
2018-09-11T01:17:57.586Z,16.80
2018-09-11T01:20:25.511Z,16.70
2018-09-11T01:22:53.368Z,16.60
2018-09-11T01:25:21.406Z,16.60
2018-09-11T01:27:49.372Z,16.60
2018-09-11T01:30:19.263Z,16.50
2018-09-11T01:32:47.624Z,16.50
2018-09-11T01:35:15.636Z,16.60
2018-09-11T01:37:43.564Z,16.60
2018-09-11T01:40:11.497Z,16.60
2018-09-11T01:42:39.762Z,16.60
2018-09-11T01:45:08.057Z,16.60
2018-09-11T01:47:36.097Z,16.40
2018-09-11T01:50:04.250Z,16.30
2018-09-11T01:52:32.235Z,16.30
2018-09-11T01:55:00.362Z,16.20
2018-09-11T01:57:28.349Z,16.10
2018-09-11T01:59:56.451Z,16.10
2018-09-11T02:02:24.410Z,16.10
2018-09-11T02:04:52.714Z,16.00
2018-09-11T02:07:20.716Z,16.00
2018-09-11T02:09:48.700Z,16.00
2018-09-11T02:12:16.848Z,16.10
2018-09-11T02:14:45.106Z,16.10
2018-09-11T02:17:13.075Z,16.00
2018-09-11T02:19:41.069Z,16.00
2018-09-11T02:22:09.056Z,15.90
2018-09-11T02:24:36.993Z,15.90
2018-09-11T02:27:05.296Z,16.00
2018-09-11T02:29:33.371Z,16.00
2018-09-11T02:32:01.389Z,16.00
2018-09-11T02:34:29.413Z,16.00
2018-09-11T02:36:57.356Z,16.10
2018-09-11T02:39:25.391Z,16.10
2018-09-11T02:41:53.474Z,16.10
2018-09-11T02:44:21.331Z,16.00
2018-09-11T02:46:49.337Z,15.90
2018-09-11T02:49:17.365Z,15.70
2018-09-11T02:51:45.380Z,15.60
2018-09-11T02:54:13.410Z,15.50
2018-09-11T02:56:41.487Z,15.50
2018-09-11T02:59:09.416Z,15.40
2018-09-11T03:01:37.432Z,15.40
2018-09-11T03:04:05.404Z,15.50
2018-09-11T03:06:33.503Z,15.60
2018-09-11T03:09:01.503Z,15.80
2018-09-11T03:11:29.544Z,15.70
2018-09-11T03:13:56.761Z,15.60
2018-09-11T03:16:24.059Z,15.60
2018-09-11T03:18:52.187Z,15.60
2018-09-11T03:21:20.550Z,15.70
2018-09-11T03:23:48.692Z,15.70
2018-09-11T03:26:16.861Z,15.60
2018-09-11T03:28:44.789Z,15.70
2018-09-11T03:31:12.709Z,15.70
2018-09-11T03:33:40.652Z,15.60
2018-09-11T03:36:08.664Z,15.50
2018-09-11T03:38:36.639Z,15.40
2018-09-11T03:41:04.538Z,15.50
2018-09-11T03:43:32.516Z,15.50
2018-09-11T03:46:00.536Z,15.60
2018-09-11T03:48:28.627Z,15.60
2018-09-11T03:50:56.481Z,15.60
2018-09-11T03:53:24.448Z,15.60
2018-09-11T03:55:52.458Z,15.60
2018-09-11T03:58:20.478Z,15.50
2018-09-11T04:00:48.499Z,15.60
2018-09-11T04:03:16.608Z,15.50
2018-09-11T04:05:44.626Z,15.50
2018-09-11T04:08:12.635Z,15.50
2018-09-11T04:10:40.637Z,15.60
2018-09-11T04:13:08.579Z,15.60
2018-09-11T04:15:36.657Z,15.60
2018-09-11T04:18:04.718Z,15.50
2018-09-11T04:20:32.850Z,15.50
2018-09-11T04:23:00.871Z,15.50
2018-09-11T04:25:28.900Z,15.60
2018-09-11T04:27:56.990Z,15.50
2018-09-11T04:30:24.894Z,15.60
2018-09-11T04:32:52.991Z,15.60
2018-09-11T04:35:21.168Z,15.70
2018-09-11T04:37:49.144Z,15.70
2018-09-11T04:40:17.205Z,15.60
2018-09-11T04:42:45.312Z,15.50
2018-09-11T04:45:14.493Z,15.50
2018-09-11T04:47:42.379Z,15.40
2018-09-11T04:50:10.336Z,15.40
2018-09-11T04:52:38.372Z,15.40
2018-09-11T04:55:06.534Z,15.40
2018-09-11T04:57:34.503Z,15.30
2018-09-11T05:00:02.387Z,15.40
2018-09-11T05:02:30.367Z,15.50
2018-09-11T05:04:59.421Z,15.60
2018-09-11T05:07:27.529Z,15.70
2018-09-11T05:09:55.427Z,15.70
2018-09-11T05:12:23.289Z,15.70
2018-09-11T05:14:51.241Z,15.80
2018-09-11T05:17:19.175Z,15.60
2018-09-11T05:19:47.179Z,15.60
2018-09-11T05:22:15.238Z,15.70
2018-09-11T05:24:43.208Z,15.60
2018-09-11T05:27:11.228Z,15.60
2018-09-11T05:29:39.496Z,15.70
2018-09-11T05:32:07.615Z,15.70
2018-09-11T05:34:35.566Z,15.70
2018-09-11T05:37:03.620Z,15.70
2018-09-11T05:39:31.656Z,15.80
2018-09-11T05:41:59.663Z,15.90
2018-09-11T05:44:27.639Z,15.80
2018-09-11T05:46:55.641Z,15.80
2018-09-11T05:49:23.935Z,15.80
2018-09-11T05:51:53.402Z,15.80
2018-09-11T05:54:21.363Z,16.00
2018-09-11T05:56:49.375Z,16.20
2018-09-11T05:59:17.315Z,16.30
2018-09-11T06:01:45.380Z,16.40
2018-09-11T06:04:13.280Z,16.50
2018-09-11T06:06:41.249Z,17.10
2018-09-11T06:09:11.377Z,17.80
2018-09-11T06:11:39.457Z,18.40
2018-09-11T06:14:07.917Z,18.90
2018-09-11T06:16:35.949Z,19.60
2018-09-11T06:19:04.197Z,20.10
2018-09-11T06:21:32.432Z,20.60
2018-09-11T06:24:00.528Z,20.60
2018-09-11T06:26:30.174Z,20.50
2018-09-11T06:28:58.911Z,20.20
2018-09-11T06:31:27.022Z,19.90
2018-09-11T06:33:54.899Z,19.90
2018-09-11T06:36:22.940Z,19.70
2018-09-11T06:38:51.198Z,19.60
2018-09-11T06:41:19.872Z,19.50
2018-09-11T06:43:47.863Z,19.20
2018-09-11T06:46:15.953Z,18.80
2018-09-11T06:48:43.895Z,18.50
2018-09-11T06:51:12.159Z,18.30
2018-09-11T06:53:40.295Z,18.20
2018-09-11T06:56:09.333Z,18.20
2018-09-11T06:58:37.410Z,18.20
2018-09-11T07:01:05.573Z,18.40
2018-09-11T07:03:33.567Z,18.60
2018-09-11T07:06:01.561Z,19.00
2018-09-11T07:08:29.676Z,19.40
2018-09-11T07:10:57.716Z,19.90
2018-09-11T07:13:25.762Z,20.20
2018-09-11T07:15:53.733Z,20.60
2018-09-11T07:18:21.840Z,20.90
2018-09-11T07:20:49.768Z,21.00
2018-09-11T07:23:17.713Z,21.40
2018-09-11T07:25:45.877Z,21.60
2018-09-11T07:28:13.834Z,21.80
2018-09-11T07:30:41.856Z,22.10
2018-09-11T07:33:09.835Z,22.40
2018-09-11T07:35:38.069Z,22.40
2018-09-11T07:38:06.227Z,22.60
2018-09-11T07:40:34.593Z,22.80
2018-09-11T07:43:02.846Z,23.20
2018-09-11T07:45:31.177Z,22.90
2018-09-11T07:47:59.334Z,23.10
2018-09-11T07:50:27.763Z,23.10
2018-09-11T07:52:55.882Z,23.30
2018-09-11T07:55:23.809Z,23.50
2018-09-11T07:57:52.059Z,23.60
2018-09-11T08:00:20.355Z,23.60
2018-09-11T08:02:48.575Z,23.80
2018-09-11T08:05:16.967Z,24.00
2018-09-11T08:07:45.127Z,24.10
2018-09-11T08:10:13.325Z,24.20
2018-09-11T08:12:41.540Z,24.10
2018-09-11T08:15:10.590Z,23.80
2018-09-11T08:17:38.844Z,23.80
2018-09-11T08:20:07.251Z,23.70
2018-09-11T08:22:35.545Z,23.60
2018-09-11T08:25:04.055Z,23.80
2018-09-11T08:27:32.026Z,23.90
2018-09-11T08:30:00.035Z,23.70
2018-09-11T08:32:28.079Z,23.60
2018-09-11T08:34:56.235Z,23.40
2018-09-11T08:37:24.254Z,23.40
2018-09-11T08:39:52.149Z,23.30
2018-09-11T08:42:20.134Z,23.10
2018-09-11T08:44:48.120Z,23.20
2018-09-11T08:47:16.020Z,23.30
2018-09-11T08:49:43.989Z,23.50
2018-09-11T08:52:12.082Z,23.70
2018-09-11T08:54:40.113Z,23.70
2018-09-11T08:57:08.069Z,23.50
2018-09-11T08:59:36.119Z,23.40
2018-09-11T09:02:04.203Z,23.50
2018-09-11T09:04:32.157Z,23.50
2018-09-11T09:07:00.296Z,23.40
2018-09-11T09:09:28.318Z,23.40
2018-09-11T09:11:56.416Z,23.20
2018-09-11T09:14:24.359Z,23.40
2018-09-11T09:16:52.435Z,23.40
2018-09-11T09:19:20.410Z,23.50
2018-09-11T09:21:48.438Z,23.20
2018-09-11T09:24:16.453Z,23.20
2018-09-11T09:26:44.628Z,23.20
2018-09-11T09:29:12.725Z,23.10
2018-09-11T09:31:40.696Z,23.00
2018-09-11T09:34:08.760Z,23.00
2018-09-11T09:36:36.934Z,22.90
2018-09-11T09:39:06.572Z,23.10
2018-09-11T09:41:34.797Z,23.10
2018-09-11T09:44:02.824Z,23.30
2018-09-11T09:46:30.831Z,23.50
2018-09-11T09:48:58.988Z,23.70
2018-09-11T09:51:27.092Z,23.70
2018-09-11T09:53:55.137Z,23.60
2018-09-11T09:56:23.199Z,23.60
2018-09-11T09:58:51.364Z,23.60
2018-09-11T10:02:22.816Z,23.70
2018-09-11T10:04:51.361Z,23.60
2018-09-11T10:07:20.493Z,23.60
2018-09-11T10:09:48.841Z,23.70
2018-09-11T10:12:17.152Z,23.70
2018-09-11T10:14:45.098Z,23.80
2018-09-11T10:17:13.124Z,23.90
2018-09-11T10:19:41.075Z,23.90
2018-09-11T10:22:09.346Z,23.90
2018-09-11T10:24:37.304Z,23.80
2018-09-11T10:27:05.318Z,23.80
2018-09-11T10:29:33.490Z,23.90
2018-09-11T10:32:01.400Z,24.00
2018-09-11T10:34:29.583Z,24.00
2018-09-11T10:36:58.054Z,23.90
2018-09-11T10:39:25.950Z,24.00
2018-09-11T10:41:54.242Z,24.00
2018-09-11T10:44:22.308Z,23.80
2018-09-11T10:46:50.360Z,24.00
2018-09-11T10:49:18.388Z,24.20
2018-09-11T10:51:46.339Z,24.30
2018-09-11T10:54:14.391Z,24.40
2018-09-11T10:56:42.445Z,24.50
2018-09-11T10:59:11.536Z,24.50
2018-09-11T11:01:39.523Z,24.60
2018-09-11T11:04:07.710Z,24.70
2018-09-11T11:06:36.331Z,24.80
2018-09-11T11:09:07.316Z,24.70
2018-09-11T11:11:35.265Z,24.60
2018-09-11T11:14:03.634Z,24.60
2018-09-11T11:16:31.832Z,24.60
2018-09-11T11:18:59.973Z,24.50
2018-09-11T11:21:27.995Z,24.60
2018-09-11T11:23:55.976Z,24.70
2018-09-11T11:26:23.999Z,24.90
2018-09-11T11:28:51.994Z,25.00
2018-09-11T11:31:20.042Z,25.10
2018-09-11T11:33:48.132Z,25.10
2018-09-11T11:36:16.202Z,25.10
2018-09-11T11:38:44.313Z,25.10
2018-09-11T11:41:12.664Z,24.90
2018-09-11T11:43:41.722Z,24.90
2018-09-11T11:46:10.750Z,24.80
2018-09-11T11:48:38.925Z,25.00
2018-09-11T11:51:07.037Z,25.00
2018-09-11T11:53:35.077Z,25.00
2018-09-11T11:56:03.161Z,25.20
2018-09-11T11:58:31.311Z,25.30
2018-09-11T12:00:59.686Z,25.50
2018-09-11T12:03:27.818Z,25.40
2018-09-11T12:05:55.903Z,25.50
2018-09-11T12:08:23.854Z,25.50
2018-09-11T12:10:51.894Z,25.60
2018-09-11T12:13:20.136Z,25.60
2018-09-11T12:15:48.235Z,25.50
2018-09-11T12:18:16.430Z,25.50
2018-09-11T12:20:44.389Z,25.60
2018-09-11T12:23:12.293Z,25.70
2018-09-11T12:25:40.341Z,25.80
2018-09-11T12:28:08.301Z,26.00
2018-09-11T12:30:36.178Z,26.10
2018-09-11T12:33:04.203Z,26.10
2018-09-11T12:35:32.211Z,26.30
2018-09-11T12:38:00.446Z,26.00
2018-09-11T12:40:28.348Z,26.00
2018-09-11T12:42:56.199Z,26.10
2018-09-11T12:45:24.103Z,26.20
2018-09-11T12:47:52.631Z,26.40
2018-09-11T12:50:20.186Z,26.50
2018-09-11T12:52:48.710Z,26.40
2018-09-11T12:55:16.743Z,26.50
2018-09-11T12:57:44.810Z,26.40
2018-09-11T13:00:12.942Z,26.40
2018-09-11T13:02:41.078Z,26.30
2018-09-11T13:05:09.240Z,26.20
2018-09-11T13:07:37.343Z,26.30
2018-09-11T13:10:05.475Z,26.30
2018-09-11T13:12:33.803Z,26.20
2018-09-11T13:15:01.896Z,26.20
2018-09-11T13:17:29.975Z,26.30
2018-09-11T13:19:58.120Z,26.40
2018-09-11T13:22:26.235Z,26.50
2018-09-11T13:24:54.776Z,26.50
2018-09-11T13:27:22.860Z,26.60
2018-09-11T13:29:51.185Z,26.60
2018-09-11T13:32:19.837Z,26.70
2018-09-11T13:34:47.906Z,26.70
2018-09-11T13:37:16.588Z,26.60
2018-09-11T13:39:45.092Z,26.60
2018-09-11T13:42:13.229Z,26.50
2018-09-11T13:44:41.312Z,26.40
2018-09-11T13:47:09.487Z,26.30
2018-09-11T13:49:37.518Z,26.30
2018-09-11T13:52:05.593Z,26.40
2018-09-11T13:54:33.691Z,26.50
2018-09-11T13:57:02.747Z,26.50
2018-09-11T13:59:30.795Z,26.60
2018-09-11T14:01:58.915Z,26.70
2018-09-11T14:04:26.904Z,26.60
2018-09-11T14:06:54.915Z,26.60
2018-09-11T14:09:23.009Z,26.30
2018-09-11T14:11:53.693Z,26.40
2018-09-11T14:14:21.743Z,26.50
2018-09-11T14:16:49.827Z,26.50
2018-09-11T14:19:18.194Z,26.50
2018-09-11T14:21:46.623Z,26.60
2018-09-11T14:24:14.736Z,26.50
2018-09-11T14:26:42.848Z,26.60
2018-09-11T14:29:10.820Z,26.50
2018-09-11T14:31:38.790Z,26.50
2018-09-11T14:34:06.935Z,26.40
2018-09-11T14:36:35.107Z,26.40
2018-09-11T14:39:04.681Z,26.30
2018-09-11T14:41:32.699Z,26.20
2018-09-11T14:44:00.778Z,26.30
2018-09-11T14:46:28.933Z,26.30
2018-09-11T14:48:56.880Z,26.30
2018-09-11T14:51:24.883Z,26.30
2018-09-11T14:53:53.036Z,26.50
2018-09-11T14:56:21.238Z,26.60
2018-09-11T14:58:49.377Z,26.70
2018-09-11T15:01:17.517Z,26.80
2018-09-11T15:03:45.503Z,26.70
2018-09-11T15:06:13.854Z,26.80
2018-09-11T15:08:41.934Z,26.70
2018-09-11T15:11:09.896Z,26.70
2018-09-11T15:13:38.270Z,26.60
2018-09-11T15:16:06.235Z,26.60
2018-09-11T15:18:34.255Z,26.50
2018-09-11T15:21:02.357Z,26.50
2018-09-11T15:23:30.423Z,26.50
2018-09-11T15:25:58.466Z,26.50
2018-09-11T15:28:26.523Z,26.50
2018-09-11T15:30:54.654Z,26.50
2018-09-11T15:33:22.833Z,26.40
2018-09-11T15:35:50.944Z,26.50
2018-09-11T15:38:18.904Z,26.60
2018-09-11T15:40:46.945Z,26.60
2018-09-11T15:43:14.957Z,26.70
2018-09-11T15:45:42.986Z,27.00
2018-09-11T15:48:11.142Z,27.00
2018-09-11T15:50:39.344Z,27.00
2018-09-11T15:53:07.614Z,26.80
2018-09-11T15:55:35.872Z,26.70
2018-09-11T15:58:04.346Z,26.50
2018-09-11T16:00:32.380Z,26.40
2018-09-11T16:03:00.712Z,26.20
2018-09-11T16:05:29.064Z,26.10
2018-09-11T16:07:57.150Z,25.90
2018-09-11T16:10:25.191Z,25.90
2018-09-11T16:12:53.105Z,25.90
2018-09-11T16:15:21.077Z,25.80
2018-09-11T16:17:49.154Z,25.60
2018-09-11T16:20:17.196Z,25.50
2018-09-11T16:22:45.167Z,25.50
2018-09-11T16:25:13.319Z,25.50
2018-09-11T16:27:41.297Z,25.40
2018-09-11T16:30:09.349Z,25.30
2018-09-11T16:32:37.370Z,25.20
2018-09-11T16:35:05.427Z,25.10
2018-09-11T16:37:33.716Z,25.10
2018-09-11T16:40:01.832Z,25.00
2018-09-11T16:42:29.853Z,24.80
2018-09-11T16:44:57.890Z,24.90
2018-09-11T16:47:25.859Z,24.70
2018-09-11T16:49:53.940Z,24.70
2018-09-11T16:52:22.174Z,24.70
2018-09-11T16:54:50.251Z,24.50
2018-09-11T16:57:18.347Z,24.50
2018-09-11T16:59:46.814Z,24.50
2018-09-11T17:02:14.959Z,24.30
2018-09-11T17:04:42.955Z,24.30
2018-09-11T17:07:10.947Z,24.20
2018-09-11T17:09:38.952Z,24.20
2018-09-11T17:12:06.949Z,24.00
2018-09-11T17:14:35.936Z,23.90
2018-09-11T17:17:04.117Z,23.90
2018-09-11T17:19:32.084Z,23.80
2018-09-11T17:22:00.223Z,23.80
2018-09-11T17:24:28.207Z,23.60
2018-09-11T17:26:56.354Z,23.50
2018-09-11T17:29:24.543Z,23.40
2018-09-11T17:31:52.564Z,23.30
2018-09-11T17:34:20.666Z,23.10
2018-09-11T17:36:48.802Z,23.00
2018-09-11T17:39:16.808Z,22.90
2018-09-11T17:41:44.874Z,22.80
2018-09-11T17:44:12.898Z,22.70
2018-09-11T17:46:40.882Z,22.60
2018-09-11T17:49:08.968Z,22.40
2018-09-11T17:51:37.296Z,22.40
2018-09-11T17:54:05.399Z,22.30
2018-09-11T17:56:33.570Z,22.20
2018-09-11T17:59:01.577Z,22.10
2018-09-11T18:01:29.743Z,22.00
2018-09-11T18:03:58.096Z,22.00
2018-09-11T18:06:26.179Z,21.80
2018-09-11T18:08:54.279Z,21.80
2018-09-11T18:11:22.392Z,21.70
2018-09-11T18:13:50.573Z,21.70
2018-09-11T18:16:18.825Z,21.60
2018-09-11T18:18:46.832Z,21.50
2018-09-11T18:21:15.049Z,21.50
2018-09-11T18:23:43.320Z,21.40
2018-09-11T18:26:12.191Z,21.40
2018-09-11T18:28:41.388Z,21.40
2018-09-11T18:31:09.472Z,21.30
2018-09-11T18:33:37.538Z,21.20
2018-09-11T18:36:05.586Z,21.10
2018-09-11T18:38:33.628Z,21.00
2018-09-11T18:41:01.766Z,21.00
2018-09-11T18:43:29.874Z,20.90
2018-09-11T18:45:58.109Z,20.80
2018-09-11T18:48:26.274Z,20.70
2018-09-11T18:50:54.724Z,20.60
2018-09-11T18:53:22.829Z,20.50
2018-09-11T18:55:51.334Z,20.40
2018-09-11T18:58:19.426Z,20.40
2018-09-11T19:00:47.462Z,20.40
2018-09-11T19:03:15.562Z,20.30
2018-09-11T19:05:43.603Z,20.40
2018-09-11T19:08:11.753Z,20.40
2018-09-11T19:10:39.825Z,20.40
2018-09-11T19:13:08.008Z,20.40
2018-09-11T19:15:36.159Z,20.40
2018-09-11T19:18:04.367Z,20.40
2018-09-11T19:20:32.390Z,20.40
2018-09-11T19:23:00.398Z,20.40
2018-09-11T19:25:28.508Z,20.40
2018-09-11T19:27:56.728Z,20.30
2018-09-11T19:30:25.071Z,20.30
2018-09-11T19:32:53.171Z,20.30
2018-09-11T19:35:21.238Z,20.20
2018-09-11T19:37:49.430Z,20.20
2018-09-11T19:40:19.808Z,20.20
2018-09-11T19:42:48.404Z,20.10
2018-09-11T19:45:16.572Z,20.00
2018-09-11T19:47:44.601Z,20.00
2018-09-11T19:50:13.070Z,20.00
2018-09-11T19:52:41.188Z,19.90
2018-09-11T19:55:09.276Z,19.80
2018-09-11T19:57:37.437Z,19.70
2018-09-11T20:00:06.701Z,19.70
2018-09-11T20:02:35.561Z,19.60
2018-09-11T20:05:03.641Z,19.60
2018-09-11T20:07:31.625Z,19.60
2018-09-11T20:09:59.669Z,19.60
2018-09-11T20:12:27.848Z,19.50
2018-09-11T20:14:56.932Z,19.40
2018-09-11T20:17:25.042Z,19.40
2018-09-11T20:19:53.163Z,19.30
2018-09-11T20:22:21.322Z,19.20
2018-09-11T20:24:49.383Z,19.10
2018-09-11T20:27:17.875Z,19.10
2018-09-11T20:29:45.978Z,19.10
2018-09-11T20:32:13.427Z,19.10
2018-09-11T20:34:40.764Z,19.00
2018-09-11T20:37:08.510Z,19.00
2018-09-11T20:39:35.890Z,19.00
2018-09-11T20:42:03.300Z,18.90
2018-09-11T20:44:30.740Z,19.00
2018-09-11T20:46:58.071Z,19.00
2018-09-11T20:49:25.712Z,18.90
2018-09-11T20:51:53.459Z,18.90
2018-09-11T20:54:20.868Z,18.90
2018-09-11T20:56:48.275Z,18.90
2018-09-11T20:59:15.753Z,18.90
2018-09-11T21:01:43.118Z,18.80
2018-09-11T21:04:10.511Z,18.80
2018-09-11T21:06:38.276Z,18.80
2018-09-11T21:09:07.868Z,18.70
2018-09-11T21:11:36.480Z,18.70
2018-09-11T21:14:04.486Z,18.70
2018-09-11T21:16:32.855Z,18.60
2018-09-11T21:19:01.001Z,18.50
2018-09-11T21:21:29.144Z,18.40
2018-09-11T21:23:57.178Z,18.30
2018-09-11T21:26:25.285Z,18.20
2018-09-11T21:28:53.325Z,18.10
2018-09-11T21:31:21.503Z,18.10
2018-09-11T21:33:49.774Z,18.10
2018-09-11T21:36:17.985Z,18.10
2018-09-11T21:38:46.609Z,18.10
2018-09-11T21:41:14.586Z,18.10
2018-09-11T21:43:43.208Z,18.20
2018-09-11T21:46:11.298Z,18.20
2018-09-11T21:48:39.554Z,18.20
2018-09-11T21:51:07.830Z,18.10
2018-09-11T21:53:35.929Z,18.10
2018-09-11T21:56:04.086Z,18.00
2018-09-11T21:58:32.652Z,17.90
2018-09-11T22:01:02.744Z,17.70
2018-09-11T22:03:30.858Z,17.60
2018-09-11T22:05:59.218Z,17.50
2018-09-11T22:08:27.259Z,17.30
2018-09-11T22:10:55.324Z,17.20
2018-09-11T22:13:23.395Z,17.10
2018-09-11T22:15:55.784Z,17.00
2018-09-11T22:18:24.069Z,16.90
2018-09-11T22:20:52.142Z,16.90
2018-09-11T22:23:20.521Z,16.90
2018-09-11T22:25:48.740Z,16.90
2018-09-11T22:28:17.437Z,16.80
2018-09-11T22:30:45.598Z,16.80
2018-09-11T22:33:13.622Z,16.80
2018-09-11T22:35:41.819Z,16.70
2018-09-11T22:38:10.042Z,16.60
2018-09-11T22:40:38.012Z,16.60
2018-09-11T22:43:06.651Z,16.40
2018-09-11T22:45:34.709Z,16.40
2018-09-11T22:48:02.717Z,16.50
2018-09-11T22:50:30.774Z,16.50
2018-09-11T22:53:04.314Z,16.50
2018-09-11T22:55:32.230Z,16.50
2018-09-11T22:58:00.436Z,16.50
2018-09-11T23:00:28.426Z,16.70
2018-09-11T23:02:56.546Z,16.70
2018-09-11T23:05:24.710Z,16.80
2018-09-11T23:07:52.648Z,16.80
2018-09-11T23:10:20.585Z,16.80
2018-09-11T23:12:48.656Z,16.80
2018-09-11T23:15:16.621Z,16.80
2018-09-11T23:17:44.603Z,16.80
2018-09-11T23:20:12.600Z,16.80
2018-09-11T23:22:40.686Z,16.70
2018-09-11T23:25:08.821Z,16.70
2018-09-11T23:27:36.760Z,16.60
2018-09-11T23:30:05.234Z,16.60
2018-09-11T23:32:33.245Z,16.50
2018-09-11T23:35:01.159Z,16.40
2018-09-11T23:37:29.216Z,16.30
2018-09-11T23:39:57.170Z,16.20
2018-09-11T23:42:25.145Z,16.20
2018-09-11T23:44:53.075Z,16.30
2018-09-11T23:47:21.100Z,16.50
2018-09-11T23:49:49.040Z,16.60
2018-09-11T23:52:16.960Z,16.70
2018-09-11T23:54:44.852Z,16.60
2018-09-11T23:57:12.961Z,16.60
2018-09-11T23:59:41.020Z,16.80
